Kasur, Pakistan
Current Conditions -  °F | °C
As of 6:25 AM on Saturday 29 Nov 2014 (Local Time) from OPLA Reporting Station
Haze Haze  
Wind Chill: 50°   Ceiling: Unl
Heat Index: 50°   Visibility: 1.2mi
Dew Point: 48°   Wind: 3mph
Humidity: 94%   Direction: 320°NW
Pressure: 29.94"   Gusts: NA
Location:  31.12°N, 74.45°E
Report Text: OPLA 290125Z 32003KT 2000 BR NSC 10/09 Q1014
Loading
Personal Weather Stations






























Interactive Weather Map New forecast layout! Learn more

10-Day Weather Forecast

Advertisements
Track Severe Weather on mobile